Time;durP1;ratioP1;P1;durP2;ratioP2;P2;SDS_P1;SDS_P2;PMS_P1;PMS_P2;Temp;Humidity;BMP_temperature;BMP_pressure;BME280_temperature;BME280_humidity;BME280_pressure;Samples;Min_cycle;Max_cycle;Signal;HPM_P1;HPM_P2
2021/10/18 00:01:55;;;;;;;44.00;20.27;;;8.00;44.70;;;;;;5062699;28;20040;-68
2021/10/18 00:04:27;;;;;;;43.67;20.38;;;7.90;46.40;;;;;;5064460;28;20037;-68
2021/10/18 00:06:57;;;;;;;43.22;20.98;;;7.80;46.80;;;;;;5061734;28;20515;-69
2021/10/18 00:09:29;;;;;;;43.80;19.90;;;7.90;48.20;;;;;;5051965;28;20428;-69
2021/10/18 00:12:03;;;;;;;44.10;20.95;;;7.90;47.50;;;;;;5063472;28;20041;-69
2021/10/18 00:14:36;;;;;;;40.03;19.45;;;7.70;47.80;;;;;;5061831;28;20040;-68
2021/10/18 00:17:04;;;;;;;40.90;19.50;;;7.60;47.30;;;;;;5056769;28;20466;-69
2021/10/18 00:19:38;;;;;;;38.53;18.03;;;7.50;48.00;;;;;;5060163;28;20053;-69
2021/10/18 00:22:10;;;;;;;38.33;17.58;;;7.50;49.10;;;;;;5058894;28;20409;-68
2021/10/18 00:24:42;;;;;;;35.75;17.10;;;7.40;48.70;;;;;;5058490;28;20056;-69
2021/10/18 00:27:11;;;;;;;37.47;18.52;;;7.40;48.80;;;;;;5061232;28;20120;-69
2021/10/18 00:29:44;;;;;;;33.95;17.48;;;7.40;48.40;;;;;;5058479;28;20078;-70
2021/10/18 00:32:15;;;;;;;34.63;17.80;;;7.30;48.70;;;;;;5061325;28;20049;-69
2021/10/18 00:34:48;;;;;;;34.58;17.00;;;7.30;48.10;;;;;;5059794;28;20053;-70
2021/10/18 00:37:19;;;;;;;36.33;17.75;;;7.30;49.50;;;;;;5062347;28;20123;-69
2021/10/18 00:39:53;;;;;;;32.35;16.10;;;7.30;49.20;;;;;;5055580;28;20122;-70
2021/10/18 00:42:25;;;;;;;31.52;16.50;;;7.10;48.00;;;;;;5059111;28;20036;-69
2021/10/18 00:44:57;;;;;;;32.05;17.08;;;7.10;49.60;;;;;;5055804;28;20032;-68
2021/10/18 00:47:25;;;;;;;34.70;15.85;;;7.10;50.10;;;;;;5059361;28;20604;-68
2021/10/18 00:49:53;;;;;;;34.78;16.92;;;7.10;50.20;;;;;;5065595;28;20463;-68
2021/10/18 00:52:24;;;;;;;29.40;15.88;;;7.00;50.40;;;;;;5061013;28;20113;-69
2021/10/18 00:54:57;;;;;;;30.02;15.65;;;6.90;49.80;;;;;;5061729;28;20058;-68
2021/10/18 00:57:25;;;;;;;28.85;15.35;;;6.90;50.40;;;;;;5065183;28;20463;-68
2021/10/18 00:59:53;;;;;;;30.85;15.52;;;6.90;51.20;;;;;;5054789;28;20079;-68
2021/10/18 01:02:21;;;;;;;28.38;15.38;;;6.80;50.50;;;;;;5061599;28;20101;-68
2021/10/18 01:04:51;;;;;;;28.35;14.82;;;6.90;51.80;;;;;;5060117;28;20056;-68
2021/10/18 01:07:19;;;;;;;26.65;14.48;;;6.80;50.80;;;;;;5057114;28;20048;-68
2021/10/18 01:09:48;;;;;;;27.98;14.98;;;6.80;51.70;;;;;;5060771;28;20053;-68
2021/10/18 01:12:19;;;;;;;24.52;13.05;;;6.80;51.60;;;;;;5054426;28;20040;-68
2021/10/18 01:14:48;;;;;;;22.75;12.18;;;6.70;51.00;;;;;;5056560;28;20044;-68
2021/10/18 01:17:17;;;;;;;22.65;12.38;;;6.70;51.00;;;;;;5061318;28;20386;-68
2021/10/18 01:19:45;;;;;;;23.27;12.55;;;6.60;50.50;;;;;;5057793;28;20394;-69
2021/10/18 01:22:18;;;;;;;21.88;11.57;;;6.50;50.90;;;;;;5058897;28;20491;-68
2021/10/18 01:24:46;;;;;;;23.40;12.88;;;6.50;51.40;;;;;;5064872;28;20135;-68
2021/10/18 01:27:15;;;;;;;21.52;12.65;;;6.50;51.00;;;;;;5056441;28;20047;-68
2021/10/18 01:29:43;;;;;;;25.52;13.50;;;6.40;51.50;;;;;;5053968;28;20516;-68
2021/10/18 01:32:16;;;;;;;26.67;14.33;;;6.40;51.50;;;;;;5060520;28;20060;-68
2021/10/18 01:34:49;;;;;;;24.92;14.25;;;6.30;51.40;;;;;;5058789;28;20060;-68
2021/10/18 01:37:19;;;;;;;27.75;14.10;;;6.30;52.30;;;;;;5059228;28;20033;-69
2021/10/18 01:39:47;;;;;;;24.42;12.90;;;6.40;52.70;;;;;;5058598;28;20556;-68
2021/10/18 01:42:18;;;;;;;28.73;15.02;;;6.40;52.20;;;;;;5054395;28;20131;-68
2021/10/18 01:44:46;;;;;;;26.33;14.02;;;6.40;52.50;;;;;;5057676;28;20084;-68
2021/10/18 01:47:14;;;;;;;24.38;13.63;;;6.20;52.20;;;;;;5059825;28;20098;-68
2021/10/18 01:49:41;;;;;;;29.77;14.98;;;6.20;53.10;;;;;;5050771;28;20051;-68
2021/10/18 01:52:11;;;;;;;29.33;14.90;;;6.20;52.90;;;;;;5057677;28;20372;-69
2021/10/18 01:54:42;;;;;;;28.40;14.95;;;6.20;53.70;;;;;;5054190;28;20037;-68
2021/10/18 01:57:11;;;;;;;29.90;14.98;;;6.20;53.90;;;;;;5054189;28;20090;-68
2021/10/18 01:59:42;;;;;;;36.40;15.18;;;6.20;54.30;;;;;;5060411;28;20083;-68
2021/10/18 02:02:10;;;;;;;30.63;15.65;;;6.30;55.20;;;;;;5054637;28;20051;-68
2021/10/18 02:04:57;;;;;;;31.48;15.77;;;6.20;54.90;;;;;;5054335;28;20489;-68
2021/10/18 02:07:26;;;;;;;29.65;16.15;;;6.20;55.30;;;;;;5060968;28;20076;-69
2021/10/18 02:10:00;;;;;;;38.15;15.80;;;6.20;55.30;;;;;;5053078;28;20141;-69
2021/10/18 02:12:30;;;;;;;32.58;15.45;;;6.10;55.20;;;;;;5055540;28;20045;-69
2021/10/18 02:14:58;;;;;;;30.98;16.98;;;6.30;56.10;;;;;;5061351;28;20043;-69
2021/10/18 02:17:28;;;;;;;36.28;17.40;;;6.20;55.80;;;;;;5052622;28;20048;-69
2021/10/18 02:20:00;;;;;;;41.65;17.17;;;6.20;56.00;;;;;;5061524;28;20036;-69
2021/10/18 02:22:30;;;;;;;27.70;15.23;;;6.30;56.30;;;;;;5059210;28;20040;-69
2021/10/18 02:25:00;;;;;;;35.63;17.02;;;6.20;56.30;;;;;;5052761;28;20099;-69
2021/10/18 02:27:29;;;;;;;31.63;16.23;;;6.20;56.40;;;;;;5063381;28;20604;-69
2021/10/18 02:29:59;;;;;;;34.78;16.85;;;6.20;56.50;;;;;;5058892;28;20064;-69
2021/10/18 02:32:27;;;;;;;29.90;15.48;;;6.20;56.50;;;;;;5050537;28;20406;-69
2021/10/18 02:34:57;;;;;;;31.75;16.40;;;6.20;56.50;;;;;;5061164;28;20048;-69
2021/10/18 02:37:26;;;;;;;25.65;15.13;;;6.10;56.30;;;;;;5052909;28;20044;-69
2021/10/18 02:40:00;;;;;;;27.23;15.23;;;6.20;56.70;;;;;;5054974;28;20349;-69
2021/10/18 02:42:30;;;;;;;27.83;15.23;;;6.20;56.40;;;;;;5059395;28;20440;-69
2021/10/18 02:45:01;;;;;;;26.52;14.32;;;6.10;56.30;;;;;;5050955;28;20053;-69
2021/10/18 02:47:33;;;;;;;26.92;14.73;;;6.10;55.90;;;;;;5057583;28;20044;-69
2021/10/18 02:50:06;;;;;;;26.15;13.85;;;6.00;55.50;;;;;;5058736;28;20135;-69
2021/10/18 02:52:33;;;;;;;27.88;13.65;;;6.00;55.80;;;;;;5052198;28;20564;-69
2021/10/18 02:55:03;;;;;;;29.45;14.90;;;6.00;56.10;;;;;;5062866;28;20097;-69
2021/10/18 02:57:32;;;;;;;36.80;14.52;;;6.00;55.80;;;;;;5061405;28;20076;-69
2021/10/18 03:00:02;;;;;;;31.65;13.38;;;6.00;55.50;;;;;;5060838;28;20098;-69
2021/10/18 03:02:30;;;;;;;23.90;13.75;;;6.10;56.30;;;;;;5056822;28;20091;-69
2021/10/18 03:05:02;;;;;;;23.50;13.30;;;6.00;55.10;;;;;;5068473;28;20047;-66
2021/10/18 03:07:31;;;;;;;21.77;12.70;;;6.00;55.20;;;;;;5054936;28;20535;-67
2021/10/18 03:10:05;;;;;;;26.63;15.48;;;6.00;55.50;;;;;;5061457;28;20072;-67
2021/10/18 03:12:33;;;;;;;23.80;12.93;;;6.10;56.00;;;;;;5059638;28;20049;-68
2021/10/18 03:15:05;;;;;;;23.30;12.68;;;6.10;55.30;;;;;;5060347;28;20053;-68
2021/10/18 03:17:33;;;;;;;30.10;14.48;;;6.10;55.40;;;;;;5064716;28;20055;-68
2021/10/18 03:20:04;;;;;;;26.38;13.57;;;6.10;55.20;;;;;;5063629;28;20040;-67
2021/10/18 03:22:33;;;;;;;24.70;13.60;;;6.20;55.30;;;;;;5056986;28;20048;-68
2021/10/18 03:25:06;;;;;;;26.70;14.82;;;6.30;55.40;;;;;;5068741;28;20045;-67
2021/10/18 03:27:34;;;;;;;27.85;13.98;;;6.10;54.10;;;;;;5061323;28;20088;-68
2021/10/18 03:30:06;;;;;;;29.02;14.40;;;6.20;55.10;;;;;;5055865;28;20060;-68
2021/10/18 03:32:37;;;;;;;26.77;13.93;;;6.20;55.30;;;;;;5060973;28;20115;-68
2021/10/18 03:35:06;;;;;;;28.77;14.05;;;6.30;55.40;;;;;;5058926;28;20067;-68
2021/10/18 03:37:35;;;;;;;28.42;14.80;;;6.40;55.30;;;;;;5059016;28;20055;-68
2021/10/18 03:40:12;;;;;;;27.23;14.30;;;6.50;55.50;;;;;;5062676;28;20095;-69
2021/10/18 03:42:40;;;;;;;30.33;15.63;;;6.60;55.60;;;;;;5057101;28;20535;-69
2021/10/18 03:45:10;;;;;;;29.20;15.52;;;6.60;55.50;;;;;;5062194;28;20079;-69
2021/10/18 03:47:38;;;;;;;31.45;15.85;;;6.70;54.80;;;;;;5064640;28;20047;-68
2021/10/18 03:50:09;;;;;;;31.73;15.23;;;6.60;54.30;;;;;;5053667;28;20479;-69
2021/10/18 03:52:40;;;;;;;34.55;16.52;;;6.70;54.50;;;;;;5062564;28;20203;-69
2021/10/18 03:55:10;;;;;;;31.05;16.73;;;6.80;54.10;;;;;;5060764;28;20047;-69
2021/10/18 03:57:41;;;;;;;33.60;15.90;;;6.80;53.80;;;;;;5056377;28;20040;-69
2021/10/18 04:00:13;;;;;;;31.15;14.90;;;6.80;53.20;;;;;;5059656;28;20101;-69
2021/10/18 04:02:42;;;;;;;35.78;16.98;;;6.90;53.40;;;;;;5052691;28;20073;-68
2021/10/18 04:05:10;;;;;;;33.13;15.82;;;6.90;53.10;;;;;;5058379;28;20072;-68
2021/10/18 04:07:38;;;;;;;35.28;16.13;;;6.90;51.90;;;;;;5062991;28;20071;-68
2021/10/18 04:10:14;;;;;;;36.53;17.63;;;6.90;52.40;;;;;;5051980;28;20044;-68
2021/10/18 04:12:42;;;;;;;37.28;18.23;;;6.90;52.50;;;;;;5056094;28;20056;-68
2021/10/18 04:15:10;;;;;;;35.25;18.02;;;6.90;52.40;;;;;;5057876;28;20394;-68
2021/10/18 04:17:39;;;;;;;35.95;17.67;;;7.00;52.70;;;;;;5054818;28;20044;-68
2021/10/18 04:20:07;;;;;;;37.13;18.05;;;7.00;52.00;;;;;;5053601;28;20045;-68
2021/10/18 04:22:37;;;;;;;37.70;18.08;;;7.10;52.40;;;;;;5055210;28;20048;-69
2021/10/18 04:25:08;;;;;;;36.90;18.23;;;7.10;52.40;;;;;;5057006;28;20053;-69
2021/10/18 04:27:39;;;;;;;41.92;19.92;;;7.10;52.00;;;;;;5058911;28;20412;-68
2021/10/18 04:30:09;;;;;;;40.00;18.92;;;7.20;52.10;;;;;;5061781;28;20041;-69
2021/10/18 04:32:40;;;;;;;38.80;19.33;;;7.20;52.10;;;;;;5053365;28;20516;-68
2021/10/18 04:35:11;;;;;;;46.10;19.92;;;7.20;52.10;;;;;;5058577;28;20807;-69
2021/10/18 04:37:39;;;;;;;41.95;20.27;;;7.30;52.30;;;;;;5062730;28;20071;-69
2021/10/18 04:40:08;;;;;;;43.35;20.45;;;7.20;52.10;;;;;;5061545;28;20075;-69
2021/10/18 04:42:42;;;;;;;53.58;22.42;;;7.20;52.10;;;;;;5056518;28;20087;-68
2021/10/18 04:45:14;;;;;;;48.00;21.38;;;7.40;52.20;;;;;;5060429;28;20110;-69
2021/10/18 04:47:44;;;;;;;49.25;21.95;;;7.30;52.20;;;;;;5058109;28;20506;-68
2021/10/18 04:50:14;;;;;;;45.05;23.13;;;7.30;52.10;;;;;;5059906;28;20071;-68
2021/10/18 04:52:43;;;;;;;52.28;22.25;;;7.30;52.20;;;;;;5059225;28;20044;-68
2021/10/18 04:55:13;;;;;;;47.33;22.33;;;7.30;52.20;;;;;;5055820;28;20041;-69
2021/10/18 04:57:54;;;;;;;40.45;20.33;;;7.40;52.90;;;;;;5062008;28;20036;-68
2021/10/18 05:00:26;;;;;;;45.95;22.30;;;7.30;52.20;;;;;;5063892;28;20040;-69
2021/10/18 05:02:55;;;;;;;46.30;20.88;;;7.40;52.30;;;;;;5055734;28;20083;-68
2021/10/18 05:05:24;;;;;;;42.85;19.42;;;7.30;51.60;;;;;;5043542;28;20512;-69
2021/10/18 05:08:07;;;;;;;44.95;20.33;;;7.30;52.20;;;;;;5061260;28;20132;-68
2021/10/18 05:10:37;;;;;;;47.75;20.77;;;7.20;51.30;;;;;;5055530;28;20041;-68
2021/10/18 05:13:09;;;;;;;43.20;20.85;;;7.30;52.20;;;;;;5059941;28;20487;-68
2021/10/18 05:15:38;;;;;;;49.85;20.63;;;7.30;52.20;;;;;;5056418;28;20090;-69
2021/10/18 05:18:06;;;;;;;51.30;20.80;;;7.30;52.30;;;;;;5057354;28;20179;-69
2021/10/18 05:20:36;;;;;;;46.53;20.13;;;7.30;52.30;;;;;;5061921;28;20083;-68
2021/10/18 05:23:08;;;;;;;46.58;20.80;;;7.40;52.30;;;;;;5055222;28;20047;-69
2021/10/18 05:25:36;;;;;;;50.47;21.73;;;7.40;52.30;;;;;;5055691;28;20049;-69
2021/10/18 05:28:09;;;;;;;43.42;19.50;;;7.40;52.20;;;;;;5065012;28;20080;-70
2021/10/18 05:30:39;;;;;;;45.38;21.42;;;7.40;52.10;;;;;;5054499;28;20404;-69
2021/10/18 05:33:07;;;;;;;48.42;21.85;;;7.40;52.30;;;;;;5056413;28;20049;-68
2021/10/18 05:35:36;;;;;;;47.45;20.55;;;7.50;52.40;;;;;;5061599;28;20442;-68
2021/10/18 05:38:06;;;;;;;53.03;21.08;;;7.50;51.10;;;;;;5054417;28;20179;-69
2021/10/18 05:40:35;;;;;;;50.70;22.75;;;7.60;51.70;;;;;;5056852;28;20567;-69
2021/10/18 05:43:05;;;;;;;47.40;22.48;;;7.60;50.60;;;;;;5054163;28;20575;-68
2021/10/18 05:45:35;;;;;;;49.80;22.25;;;7.60;50.70;;;;;;5052340;28;20045;-68
2021/10/18 05:48:06;;;;;;;49.03;22.45;;;7.60;49.80;;;;;;5064687;28;20053;-68
2021/10/18 05:50:39;;;;;;;44.10;20.10;;;7.70;50.00;;;;;;5051120;28;20804;-69
2021/10/18 05:53:09;;;;;;;42.20;20.83;;;7.70;48.80;;;;;;5052129;28;20049;-69
2021/10/18 05:55:39;;;;;;;40.97;19.75;;;7.70;48.70;;;;;;5058836;28;20064;-69
2021/10/18 05:58:11;;;;;;;41.63;20.25;;;7.70;46.90;;;;;;5055281;28;20500;-69
2021/10/18 06:00:45;;;;;;;42.58;19.83;;;7.70;48.10;;;;;;5060460;28;20064;-69
2021/10/18 06:03:15;;;;;;;35.88;18.80;;;7.70;46.60;;;;;;5057688;28;20615;-68
2021/10/18 06:05:45;;;;;;;37.17;18.58;;;7.80;46.30;;;;;;5055649;28;20098;-68
2021/10/18 06:08:30;;;;;;;44.95;21.17;;;7.70;46.10;;;;;;5054202;28;20457;-68
2021/10/18 06:10:59;;;;;;;41.58;18.90;;;7.70;46.70;;;;;;5057852;28;20131;-68
2021/10/18 06:13:27;;;;;;;37.92;18.30;;;7.60;46.80;;;;;;5058534;28;20051;-69
2021/10/18 06:15:56;;;;;;;41.80;18.73;;;7.70;47.20;;;;;;5061578;28;20068;-67
2021/10/18 06:18:26;;;;;;;44.80;20.00;;;7.70;46.50;;;;;;5057940;28;20410;-68
2021/10/18 06:20:59;;;;;;;38.83;19.67;;;7.70;46.70;;;;;;5053016;28;20033;-67
2021/10/18 06:23:32;;;;;;;39.80;18.38;;;7.80;46.50;;;;;;5056059;28;20032;-70
2021/10/18 06:26:01;;;;;;;40.80;19.98;;;7.80;46.30;;;;;;5054942;28;20569;-69
2021/10/18 06:28:29;;;;;;;41.25;19.88;;;7.80;46.20;;;;;;5054057;28;20048;-68
2021/10/18 06:30:59;;;;;;;44.22;20.60;;;7.90;46.00;;;;;;5062496;28;20732;-70
2021/10/18 06:33:29;;;;;;;39.35;19.27;;;7.90;45.60;;;;;;5052418;28;20466;-68
2021/10/18 06:35:59;;;;;;;40.38;18.77;;;8.00;44.70;;;;;;5051921;28;20382;-67
2021/10/18 06:38:27;;;;;;;36.55;18.65;;;8.00;44.70;;;;;;5062623;28;20125;-67
2021/10/18 06:40:57;;;;;;;45.28;19.90;;;8.10;44.50;;;;;;5059347;28;20092;-68
2021/10/18 06:43:25;;;;;;;39.80;19.35;;;8.00;44.50;;;;;;5052672;28;20124;-69
2021/10/18 06:45:54;;;;;;;39.33;19.92;;;8.10;44.80;;;;;;5061220;28;20231;-68
2021/10/18 06:48:26;;;;;;;41.80;20.15;;;8.10;43.60;;;;;;5051233;28;20527;-69
2021/10/18 06:50:54;;;;;;;35.20;18.40;;;8.20;42.90;;;;;;5055811;28;20219;-69
2021/10/18 06:53:31;;;;;;;37.30;17.65;;;8.10;41.60;;;;;;5062044;28;20167;-69
2021/10/18 06:56:09;;;;;;;38.25;18.02;;;8.20;41.50;;;;;;5054227;28;20056;-71
2021/10/18 06:58:42;;;;;;;36.60;18.42;;;8.20;42.40;;;;;;5055287;28;20040;-69
2021/10/18 07:01:13;;;;;;;38.83;20.05;;;8.40;41.50;;;;;;5057851;28;20052;-68
2021/10/18 07:03:44;;;;;;;41.05;19.58;;;8.30;40.70;;;;;;5053106;28;20528;-69
2021/10/18 07:06:12;;;;;;;36.78;19.73;;;8.30;41.80;;;;;;5059216;28;20584;-69
2021/10/18 07:08:40;;;;;;;40.17;19.50;;;8.30;41.60;;;;;;5054366;28;20063;-69
2021/10/18 07:11:08;;;;;;;38.45;19.52;;;8.30;41.90;;;;;;5053961;28;20067;-68
2021/10/18 07:13:36;;;;;;;40.17;19.10;;;8.20;41.30;;;;;;5055282;28;20057;-69
2021/10/18 07:16:07;;;;;;;39.20;21.48;;;8.30;41.80;;;;;;5056074;28;20041;-69
2021/10/18 07:18:35;;;;;;;35.30;18.83;;;8.40;42.90;;;;;;5053223;28;20070;-67
2021/10/18 07:21:07;;;;;;;43.60;20.80;;;8.40;42.80;;;;;;5057138;28;20052;-68
2021/10/18 07:23:35;;;;;;;40.05;21.35;;;8.40;41.50;;;;;;5052719;28;20047;-68
2021/10/18 07:26:07;;;;;;;43.00;20.98;;;8.10;41.50;;;;;;5058770;28;20049;-69
2021/10/18 07:28:36;;;;;;;43.55;20.80;;;8.30;43.20;;;;;;5059546;28;20577;-69
2021/10/18 07:31:08;;;;;;;43.75;20.52;;;8.40;42.90;;;;;;5052943;28;20041;-69
2021/10/18 07:33:37;;;;;;;40.67;20.05;;;8.50;42.60;;;;;;5058618;28;20044;-68
2021/10/18 07:36:10;;;;;;;45.55;21.42;;;8.50;42.70;;;;;;5053877;28;20049;-69
2021/10/18 07:38:42;;;;;;;39.65;19.38;;;8.60;41.80;;;;;;5051100;28;20362;-68
2021/10/18 07:41:10;;;;;;;43.25;20.48;;;8.40;42.60;;;;;;5052499;28;20109;-68
2021/10/18 07:43:39;;;;;;;40.85;20.20;;;8.60;42.20;;;;;;5058949;28;20037;-69
2021/10/18 07:46:07;;;;;;;48.92;20.83;;;8.60;41.60;;;;;;5054293;28;20037;-68
2021/10/18 07:48:35;;;;;;;36.85;18.45;;;8.80;40.20;;;;;;5058725;28;20084;-68
2021/10/18 07:51:03;;;;;;;41.33;20.25;;;8.90;38.30;;;;;;5060747;28;20060;-68
2021/10/18 07:53:38;;;;;;;40.25;19.45;;;9.00;37.20;;;;;;5056641;28;20045;-68
2021/10/18 07:56:06;;;;;;;39.58;17.77;;;9.20;36.20;;;;;;5060247;28;20126;-70
2021/10/18 07:58:34;;;;;;;35.55;18.30;;;9.10;33.80;;;;;;5062037;28;20255;-69
2021/10/18 08:01:08;;;;;;;34.80;18.50;;;9.30;33.20;;;;;;5057733;28;20136;-69
2021/10/18 08:03:38;;;;;;;32.65;18.17;;;9.30;30.60;;;;;;5061751;28;20096;-70
2021/10/18 08:06:06;;;;;;;34.15;18.98;;;9.40;31.00;;;;;;5062497;28;20044;-68
2021/10/18 08:08:42;;;;;;;32.80;18.55;;;9.50;29.30;;;;;;5056524;28;20136;-68
2021/10/18 08:11:12;;;;;;;32.78;17.73;;;9.50;29.30;;;;;;5063963;28;20060;-69
2021/10/18 08:13:40;;;;;;;34.85;18.83;;;9.40;29.30;;;;;;5057573;28;20040;-70
2021/10/18 08:16:11;;;;;;;38.72;18.75;;;9.50;28.50;;;;;;5058553;28;20051;-69
2021/10/18 08:18:42;;;;;;;30.77;17.40;;;9.50;29.30;;;;;;5060498;28;20127;-68
2021/10/18 08:21:12;;;;;;;32.92;18.27;;;9.50;29.30;;;;;;5055468;28;20052;-68
2021/10/18 08:23:41;;;;;;;30.02;16.95;;;9.60;28.10;;;;;;5058570;28;20040;-69
2021/10/18 08:26:16;;;;;;;;;;;9.60;27.00;;;;;;5063700;28;20049;-69
2021/10/18 08:28:47;;;;;;;31.45;17.42;;;9.60;24.40;;;;;;5056453;28;19921;-69
2021/10/18 08:31:20;;;;;;;33.42;18.30;;;9.50;25.00;;;;;;5062020;28;21130;-67
2021/10/18 08:33:52;;;;;;;30.38;17.27;;;9.50;24.60;;;;;;5059950;28;20175;-69
2021/10/18 08:36:26;;;;;;;30.05;17.80;;;9.40;25.40;;;;;;5054118;28;20040;-69
2021/10/18 08:39:55;;;;;;;31.10;18.75;;;9.50;23.80;;;;;;5058769;28;20102;-68
2021/10/18 08:41:53;;;;;;;28.48;17.08;;;9.40;25.90;;;;;;5063442;28;20044;-69
2021/10/18 08:44:21;;;;;;;30.37;18.03;;;9.70;26.00;;;;;;5053039;28;20055;-69
2021/10/18 08:46:53;;;;;;;30.25;18.38;;;9.70;25.70;;;;;;5062930;28;20136;-69
2021/10/18 08:49:22;;;;;;;28.83;17.65;;;9.80;24.80;;;;;;5064245;28;20066;-69
2021/10/18 08:51:52;;;;;;;29.52;18.70;;;9.80;22.80;;;;;;5056219;28;20616;-68
2021/10/18 08:54:24;;;;;;;32.67;18.80;;;9.90;22.80;;;;;;5061103;28;20055;-68
2021/10/18 08:56:56;;;;;;;28.23;18.83;;;9.60;22.50;;;;;;5062908;28;20475;-68
2021/10/18 08:59:28;;;;;;;29.67;18.60;;;9.60;23.30;;;;;;5054641;28;20051;-68
2021/10/18 09:01:57;;;;;;;29.13;18.13;;;9.80;24.50;;;;;;5065572;28;20032;-70
2021/10/18 09:04:28;;;;;;;28.85;17.23;;;9.90;22.70;;;;;;5061270;28;20056;-68
2021/10/18 09:07:00;;;;;;;29.52;17.90;;;9.80;22.40;;;;;;5055543;28;20032;-69
2021/10/18 09:09:44;;;;;;;26.23;17.05;;;9.80;22.70;;;;;;5062954;28;20060;-69
2021/10/18 09:12:28;;;;;;;29.58;17.60;;;9.80;21.70;;;;;;5061562;28;20047;-68
2021/10/18 09:15:17;;;;;;;27.95;17.85;;;9.80;21.50;;;;;;5053175;28;20147;-68
2021/10/18 09:17:52;;;;;;;31.05;18.35;;;10.00;20.50;;;;;;5061385;28;20055;-69
2021/10/18 09:20:29;;;;;;;27.73;17.80;;;10.00;20.00;;;;;;5060913;28;20048;-69
2021/10/18 09:23:24;;;;;;;28.45;16.92;;;10.00;18.50;;;;;;5053881;28;20514;-69
2021/10/18 09:25:57;;;;;;;30.40;18.02;;;9.90;19.50;;;;;;5040924;28;20085;-69
2021/10/18 09:28:29;;;;;;;28.48;17.42;;;10.10;19.20;;;;;;5062850;28;20044;-69
2021/10/18 09:30:58;;;;;;;31.63;18.48;;;10.00;18.90;;;;;;5058635;28;20226;-69
2021/10/18 09:33:33;;;;;;;30.10;17.45;;;10.20;18.70;;;;;;5055881;28;20048;-68
2021/10/18 09:36:11;;;;;;;25.80;17.23;;;10.10;19.20;;;;;;5061592;28;20048;-67
2021/10/18 09:38:40;;;;;;;28.80;19.00;;;10.10;18.00;;;;;;5056490;28;20040;-68
2021/10/18 09:41:10;;;;;;;32.13;19.25;;;10.00;20.30;;;;;;5064521;28;20040;-70
2021/10/18 09:44:00;;;;;;;30.33;17.48;;;10.10;18.70;;;;;;5057110;28;20602;-69
2021/10/18 09:46:37;;;;;;;31.40;19.45;;;9.90;20.20;;;;;;5052725;28;20386;-68
2021/10/18 10:51:29;;;;;;;29.42;17.52;;;10.40;16.00;;;;;;5057363;28;20041;-68
2021/10/18 10:54:01;;;;;;;30.65;18.70;;;10.80;14.10;;;;;;5061538;28;20135;-69
2021/10/18 10:56:42;;;;;;;27.92;17.65;;;10.70;13.50;;;;;;5052861;28;20626;-68
2021/10/18 10:59:20;;;;;;;31.83;19.00;;;10.70;13.30;;;;;;5058248;28;20103;-69
2021/10/18 11:01:57;;;;;;;37.03;19.38;;;10.90;13.40;;;;;;5059282;28;20060;-68
2021/10/18 11:04:46;;;;;;;31.98;18.15;;;11.10;13.50;;;;;;5049597;28;20419;-68
2021/10/18 11:07:22;;;;;;;30.85;17.42;;;11.10;12.20;;;;;;5053148;28;20047;-68
2021/10/18 11:09:52;;;;;;;31.35;18.10;;;10.70;13.20;;;;;;5057569;28;20135;-68
2021/10/18 11:12:30;;;;;;;30.45;18.48;;;11.10;12.30;;;;;;5050292;28;20052;-68
2021/10/18 11:15:01;;;;;;;28.13;17.60;;;11.20;11.00;;;;;;5052270;28;20063;-69
2021/10/18 11:17:32;;;;;;;30.13;18.48;;;10.80;11.10;;;;;;5058963;28;20055;-67
2021/10/18 11:20:06;;;;;;;30.73;18.88;;;11.20;12.20;;;;;;5057109;28;20179;-69
2021/10/18 11:22:41;;;;;;;27.52;17.15;;;11.50;10.00;;;;;;5056917;28;20574;-69
2021/10/18 11:25:11;;;;;;;26.98;15.55;;;11.80;9.00;;;;;;5058408;28;20071;-67
2021/10/18 11:27:40;;;;;;;29.92;17.95;;;11.80;6.00;;;;;;5053782;28;20051;-68
2021/10/18 11:30:16;;;;;;;28.27;16.88;;;12.00;7.00;;;;;;5053056;28;20085;-68
2021/10/18 11:32:55;;;;;;;30.35;16.83;;;12.00;6.00;;;;;;5056944;28;20523;-67
2021/10/18 11:35:27;;;;;;;26.38;16.30;;;12.10;5.50;;;;;;5054416;28;20055;-68
2021/10/18 11:38:02;;;;;;;25.23;16.83;;;12.20;5.50;;;;;;5057881;28;20056;-68
2021/10/18 11:40:34;;;;;;;29.13;16.83;;;12.10;5.50;;;;;;5057662;28;20067;-68
2021/10/18 11:43:04;;;;;;;28.73;17.58;;;12.50;3.70;;;;;;5054729;28;20083;-69
2021/10/18 11:45:36;;;;;;;28.13;17.70;;;12.60;3.50;;;;;;5054763;28;20049;-68
2021/10/18 11:48:10;;;;;;;25.70;16.63;;;12.40;4.60;;;;;;5054423;28;20048;-68
2021/10/18 11:50:44;;;;;;;;;;;12.30;5.10;;;;;;5043052;28;20049;-68
2021/10/18 11:53:18;;;;;;;23.02;15.60;;;12.30;5.00;;;;;;5057257;28;20361;-68
2021/10/18 11:55:48;;;;;;;28.10;17.50;;;12.20;4.10;;;;;;5056798;28;20141;-67
2021/10/18 11:58:20;;;;;;;28.25;17.77;;;12.20;4.60;;;;;;5053414;28;20041;-70
2021/10/18 12:00:57;;;;;;;23.08;15.73;;;12.10;4.60;;;;;;5061113;28;20211;-68
2021/10/18 12:03:28;;;;;;;26.38;16.58;;;12.30;4.10;;;;;;5071705;28;20065;-68
2021/10/18 12:05:57;;;;;;;28.50;17.48;;;12.20;3.80;;;;;;5054203;28;20079;-68
2021/10/18 12:08:33;;;;;;;25.55;17.92;;;11.80;5.30;;;;;;5052464;28;20129;-69
2021/10/18 12:11:03;;;;;;;26.10;17.38;;;11.80;5.30;;;;;;5052115;28;20127;-67
2021/10/18 12:13:33;;;;;;;24.70;15.95;;;12.00;5.40;;;;;;5053919;28;20135;-68
2021/10/18 12:16:12;;;;;;;27.15;16.30;;;12.10;4.80;;;;;;5056209;28;20052;-69
2021/10/18 12:18:46;;;;;;;25.35;16.67;;;12.00;4.10;;;;;;5062329;28;20060;-69
2021/10/18 12:21:20;;;;;;;27.60;18.02;;;11.90;5.10;;;;;;5056728;28;20054;-69
2021/10/18 12:23:55;;;;;;;29.85;16.98;;;12.10;4.20;;;;;;5051756;28;20515;-68
2021/10/18 12:26:32;;;;;;;27.85;17.05;;;12.40;4.60;;;;;;5058186;28;20573;-69
2021/10/18 12:29:07;;;;;;;26.58;17.17;;;12.40;3.70;;;;;;5055305;28;20208;-70
2021/10/18 12:31:40;;;;;;;25.70;16.60;;;12.40;4.40;;;;;;5058176;28;20063;-69
2021/10/18 12:34:15;;;;;;;26.38;17.20;;;12.10;5.10;;;;;;5062780;28;20447;-68
2021/10/18 12:36:50;;;;;;;24.35;16.42;;;12.40;4.20;;;;;;5058073;28;20057;-68
2021/10/18 12:39:45;;;;;;;25.40;16.38;;;12.40;4.60;;;;;;5041997;28;20037;-69
2021/10/18 12:42:16;;;;;;;25.67;16.80;;;12.50;3.40;;;;;;5063170;28;20044;-68
2021/10/18 12:44:52;;;;;;;25.05;17.27;;;12.40;3.60;;;;;;5055657;28;20052;-69
2021/10/18 12:47:25;;;;;;;23.30;16.63;;;12.40;3.10;;;;;;5060905;28;20146;-69
2021/10/18 12:50:08;;;;;;;30.50;17.70;;;12.30;4.20;;;;;;5064939;28;20048;-69
2021/10/18 12:52:54;;;;;;;26.85;16.88;;;12.50;3.10;;;;;;5046629;28;20475;-69
2021/10/18 12:55:27;;;;;;;27.10;17.70;;;12.50;3.10;;;;;;5038882;28;20118;-68
2021/10/18 12:57:57;;;;;;;26.23;17.20;;;12.70;2.10;;;;;;5056911;28;20083;-69
2021/10/18 13:00:36;;;;;;;26.05;16.95;;;12.90;2.30;;;;;;5054593;28;20052;-70
2021/10/18 13:03:23;;;;;;;25.00;16.50;;;12.60;2.50;;;;;;5043072;28;20049;-69
2021/10/18 13:05:59;;;;;;;26.15;16.75;;;12.60;4.60;;;;;;5062450;28;20031;-69
2021/10/18 13:08:32;;;;;;;30.40;17.35;;;12.60;4.10;;;;;;5033693;28;20429;-69
2021/10/18 13:11:02;;;;;;;27.98;17.25;;;12.70;3.70;;;;;;5062999;28;20041;-67
2021/10/18 13:13:37;;;;;;;27.17;16.58;;;12.60;4.10;;;;;;5055498;28;20047;-69
2021/10/18 13:16:08;;;;;;;26.27;15.85;;;12.60;4.50;;;;;;5049344;28;20045;-68
2021/10/18 13:18:38;;;;;;;28.30;17.08;;;12.50;4.90;;;;;;5057793;28;20064;-69
2021/10/18 13:21:07;;;;;;;26.15;16.55;;;12.40;4.90;;;;;;5047519;28;20052;-69
2021/10/18 13:23:37;;;;;;;29.00;16.17;;;12.50;5.10;;;;;;5048182;28;20056;-68
2021/10/18 13:26:06;;;;;;;27.48;15.77;;;12.70;3.90;;;;;;5051703;28;20080;-68
2021/10/18 13:28:36;;;;;;;24.17;15.65;;;12.40;4.30;;;;;;5047079;28;20068;-68
2021/10/18 13:31:09;;;;;;;26.65;14.95;;;12.60;4.10;;;;;;5045576;28;20790;-69
2021/10/18 13:33:37;;;;;;;24.95;15.95;;;12.60;4.50;;;;;;5053691;28;20048;-69
2021/10/18 13:36:06;;;;;;;26.38;16.38;;;12.70;4.00;;;;;;5047418;28;20513;-69
2021/10/18 13:38:33;;;;;;;23.85;16.10;;;12.60;4.10;;;;;;5049499;28;20664;-69
2021/10/18 13:41:02;;;;;;;26.95;16.92;;;12.60;4.20;;;;;;5047669;28;20049;-70
2021/10/18 13:43:31;;;;;;;24.17;15.77;;;12.60;4.10;;;;;;5049170;28;20570;-69
2021/10/18 13:46:03;;;;;;;24.02;14.60;;;12.50;4.40;;;;;;5059295;28;20041;-68
2021/10/18 13:48:33;;;;;;;26.02;16.20;;;12.40;4.40;;;;;;5056297;28;20094;-68
2021/10/18 13:51:05;;;;;;;20.80;14.35;;;12.70;3.60;;;;;;5047887;28;20590;-69
2021/10/18 13:53:35;;;;;;;23.05;14.02;;;12.80;3.60;;;;;;5049634;28;20041;-69
2021/10/18 13:56:03;;;;;;;22.67;15.10;;;12.80;3.60;;;;;;5048523;28;20543;-68
2021/10/18 13:58:35;;;;;;;27.10;15.10;;;13.00;3.10;;;;;;5049013;28;20041;-69
2021/10/18 14:01:08;;;;;;;25.08;15.15;;;13.00;2.50;;;;;;5068289;28;20114;-69